METAR Data
IDs: Format: Raw Decoded Include TAF

Data at: 0121 UTC 19 Nov 2018

METAR for:K6B9 (Skaneateles Arpt, NY, US)
Text:K6B9 190115Z AUTO 00000KT 9SM FEW013 OVC022 00/M00 A3015 RMK AO2
Temperature: 0.0°C ( 32°F)
Dewpoint: 0.0°C ( 32°F) [RH = 100%]
Pressure (altimeter):30.15 inches Hg (1021.1 mb)
Winds:calm
Visibility: 9 sm ( 14 km)
Ceiling:2200 feet AGL
Clouds: few clouds at 1300 feet AGL, overcast cloud deck at 2200 feet AGL
QC Flag:automated observation with no human augmentation
Text:K6B9 190055Z AUTO 00000KT 10SM OVC023 00/M00 A3015 RMK AO2 P0001
Temperature: 0.0°C ( 32°F)
Dewpoint: 0.0°C ( 32°F) [RH = 100%]
Pressure (altimeter):30.15 inches Hg (1021.1 mb)
Winds:calm
Visibility:10 or more sm (16+ km)
Ceiling:2300 feet AGL
Clouds: overcast cloud deck at 2300 feet AGL
QC Flag:automated observation with no human augmentation
Text:K6B9 190035Z AUTO 00000KT 10SM OVC024 00/M00 A3016 RMK AO2
Temperature: 0.0°C ( 32°F)
Dewpoint: 0.0°C ( 32°F) [RH = 100%]
Pressure (altimeter):30.16 inches Hg (1021.4 mb)
Winds:calm
Visibility:10 or more sm (16+ km)
Ceiling:2400 feet AGL
Clouds: overcast cloud deck at 2400 feet AGL
QC Flag:automated observation with no human augmentation
Text:K6B9 190015Z AUTO 00000KT 10SM BKN026 OVC038 00/M00 A3016 RMK AO2
Temperature: 0.0°C ( 32°F)
Dewpoint: 0.0°C ( 32°F) [RH = 100%]
Pressure (altimeter):30.16 inches Hg (1021.4 mb)
Winds:calm
Visibility:10 or more sm (16+ km)
Ceiling:2600 feet AGL
Clouds: broken clouds at 2600 feet AGL, overcast cloud deck at 3800 feet AGL
QC Flag:automated observation with no human augmentation
Text:K6B9 182355Z AUTO VRB03KT 9SM FEW030 OVC040 00/M00 A3016 RMK AO2 P0001
Temperature: 0.0°C ( 32°F)
Dewpoint: 0.0°C ( 32°F) [RH = 100%]
Pressure (altimeter):30.16 inches Hg (1021.4 mb)
Winds:variable direction winds at 3 MPH (3 knots; 1.5 m/s)
Visibility: 9 sm ( 14 km)
Ceiling:4000 feet AGL
Clouds: few clouds at 3000 feet AGL, overcast cloud deck at 4000 feet AGL
QC Flag:automated observation with no human augmentation
Text:K6B9 182335Z AUTO 00000KT 7SM FEW018 SCT030 OVC110 00/M00 A3016 RMK AO2
Temperature: 0.0°C ( 32°F)
Dewpoint: 0.0°C ( 32°F) [RH = 100%]
Pressure (altimeter):30.16 inches Hg (1021.4 mb)
Winds:calm
Visibility: 7 sm ( 11 km)
Ceiling:11000 feet AGL
Clouds: few clouds at 1800 feet AGL, scattered clouds at 3000 feet AGL, overcast cloud deck at 11000 feet AGL
QC Flag:automated observation with no human augmentation
Text:K6B9 182315Z AUTO 13004KT 6SM -SN FEW005 SCT027 OVC110 00/00 A3016 RMK AO2
Temperature: 0.0°C ( 32°F)
Dewpoint: 0.0°C ( 32°F) [RH = 100%]
Pressure (altimeter):30.16 inches Hg (1021.4 mb)
Winds:from the SE (130 degrees) at 5 MPH (4 knots; 2.1 m/s)
Visibility: 6 sm ( 10 km)
Ceiling:11000 feet AGL
Clouds: few clouds at 500 feet AGL, scattered clouds at 2700 feet AGL, overcast cloud deck at 11000 feet AGL
Weather:-SN (light snow)
QC Flag:automated observation with no human augmentation
Text:K6B9 182255Z AUTO 00000KT 3SM -SN SCT005 BKN026 OVC120 00/00 A3017 RMK AO2 P0002
Temperature: 0.0°C ( 32°F)
Dewpoint: 0.0°C ( 32°F) [RH = 100%]
Pressure (altimeter):30.17 inches Hg (1021.8 mb)
Winds:calm
Visibility: 3 sm ( 5 km)
Ceiling:2600 feet AGL
Clouds: scattered clouds at 500 feet AGL, broken clouds at 2600 feet AGL, overcast cloud deck at 12000 feet AGL
Weather:-SN (light snow)
QC Flag:automated observation with no human augmentation
Text:K6B9 182235Z AUTO 00000KT 3SM -SN SCT005 SCT011 OVC030 00/00 A3018 RMK AO2
Temperature: 0.0°C ( 32°F)
Dewpoint: 0.0°C ( 32°F) [RH = 100%]
Pressure (altimeter):30.18 inches Hg (1022.1 mb)
Winds:calm
Visibility: 3 sm ( 5 km)
Ceiling:3000 feet AGL
Clouds: scattered clouds at 500 feet AGL, scattered clouds at 1100 feet AGL, overcast cloud deck at 3000 feet AGL
Weather:-SN (light snow)
QC Flag:automated observation with no human augmentation
Text:K6B9 182215Z AUTO 00000KT 3SM -SN FEW005 FEW020 OVC030 00/00 A3019 RMK AO2
Temperature: 0.0°C ( 32°F)
Dewpoint: 0.0°C ( 32°F) [RH = 100%]
Pressure (altimeter):30.19 inches Hg (1022.4 mb)
Winds:calm
Visibility: 3 sm ( 5 km)
Ceiling:3000 feet AGL
Clouds: few clouds at 500 feet AGL, few clouds at 2000 feet AGL, overcast cloud deck at 3000 feet AGL
Weather:-SN (light snow)
QC Flag:automated observation with no human augmentation
Text:K6B9 182155Z AUTO 13003KT 1 1/4SM -SN BKN005 BKN020 OVC034 00/00 A3019 RMK AO2 P0001
Temperature: 0.0°C ( 32°F)
Dewpoint: 0.0°C ( 32°F) [RH = 100%]
Pressure (altimeter):30.19 inches Hg (1022.4 mb)
Winds:from the SE (130 degrees) at 3 MPH (3 knots; 1.5 m/s)
Visibility: 1.25 sm ( 2.01 km)
Ceiling:500 feet AGL
Clouds: broken clouds at 500 feet AGL, broken clouds at 2000 feet AGL, overcast cloud deck at 3400 feet AGL
Weather:-SN (light snow)
QC Flag:automated observation with no human augmentation
Text:K6B9 182135Z AUTO 00000KT 1SM -SN SCT004 00/00 A3019 RMK AO2
Temperature: 0.0°C ( 32°F)
Dewpoint: 0.0°C ( 32°F) [RH = 100%]
Pressure (altimeter):30.19 inches Hg (1022.4 mb)
Winds:calm
Visibility: 1.00 sm ( 1.61 km)
Ceiling:at least 12,000 feet AGL
Clouds: scattered clouds at 400 feet AGL
Weather:-SN (light snow)
QC Flag:automated observation with no human augmentation
Text:K6B9 182115Z AUTO 00000KT 1SM -SN SCT004 00/00 A3020 RMK AO2
Temperature: 0.0°C ( 32°F)
Dewpoint: 0.0°C ( 32°F) [RH = 100%]
Pressure (altimeter):30.20 inches Hg (1022.8 mb)
Winds:calm
Visibility: 1.00 sm ( 1.61 km)
Ceiling:at least 12,000 feet AGL
Clouds: scattered clouds at 400 feet AGL
Weather:-SN (light snow)
QC Flag:automated observation with no human augmentation
Text:K6B9 182055Z AUTO 00000KT 3/4SM -SN BKN004 00/00 A3020 RMK AO2 P0002
Temperature: 0.0°C ( 32°F)
Dewpoint: 0.0°C ( 32°F) [RH = 100%]
Pressure (altimeter):30.20 inches Hg (1022.8 mb)
Winds:calm
Visibility: 0.75 sm ( 1.21 km)
Ceiling:400 feet AGL
Clouds: broken clouds at 400 feet AGL
Weather:-SN (light snow)
QC Flag:automated observation with no human augmentation
Text:K6B9 182035Z AUTO 00000KT 3/4SM -SN OVC003 00/00 A3020 RMK AO2
Temperature: 0.0°C ( 32°F)
Dewpoint: 0.0°C ( 32°F) [RH = 100%]
Pressure (altimeter):30.20 inches Hg (1022.8 mb)
Winds:calm
Visibility: 0.75 sm ( 1.21 km)
Ceiling:300 feet AGL
Clouds: overcast cloud deck at 300 feet AGL
Weather:-SN (light snow)
QC Flag:automated observation with no human augmentation
Text:K6B9 182015Z AUTO 00000KT 1 1/4SM -SN BKN003 00/M00 A3020 RMK AO2
Temperature: 0.0°C ( 32°F)
Dewpoint: 0.0°C ( 32°F) [RH = 100%]
Pressure (altimeter):30.20 inches Hg (1022.8 mb)
Winds:calm
Visibility: 1.25 sm ( 2.01 km)
Ceiling:300 feet AGL
Clouds: broken clouds at 300 feet AGL
Weather:-SN (light snow)
QC Flag:automated observation with no human augmentation
Text:K6B9 181955Z AUTO 00000KT 1SM -SN SCT004 SCT008 00/M00 A3020 RMK AO2 P0003
Temperature: 0.0°C ( 32°F)
Dewpoint: 0.0°C ( 32°F) [RH = 100%]
Pressure (altimeter):30.20 inches Hg (1022.8 mb)
Winds:calm
Visibility: 1.00 sm ( 1.61 km)
Ceiling:at least 12,000 feet AGL
Clouds: scattered clouds at 400 feet AGL, scattered clouds at 800 feet AGL
Weather:-SN (light snow)
QC Flag:automated observation with no human augmentation
Text:K6B9 181935Z AUTO 00000KT 3/4SM -SN OVC005 00/M00 A3021 RMK AO2
Temperature: 0.0°C ( 32°F)
Dewpoint: 0.0°C ( 32°F) [RH = 100%]
Pressure (altimeter):30.21 inches Hg (1023.1 mb)
Winds:calm
Visibility: 0.75 sm ( 1.21 km)
Ceiling:500 feet AGL
Clouds: overcast cloud deck at 500 feet AGL
Weather:-SN (light snow)
QC Flag:automated observation with no human augmentation
Text:K6B9 181915Z AUTO 00000KT 3/4SM -SN BKN005 00/M00 A3022 RMK AO2
Temperature: 0.0°C ( 32°F)
Dewpoint: 0.0°C ( 32°F) [RH = 100%]
Pressure (altimeter):30.22 inches Hg (1023.5 mb)
Winds:calm
Visibility: 0.75 sm ( 1.21 km)
Ceiling:500 feet AGL
Clouds: broken clouds at 500 feet AGL
Weather:-SN (light snow)
QC Flag:automated observation with no human augmentation
Text:K6B9 181855Z AUTO VRB03KT 1SM -SN SCT005 00/M00 A3023 RMK AO2 P0002
Temperature: 0.0°C ( 32°F)
Dewpoint: 0.0°C ( 32°F) [RH = 100%]
Pressure (altimeter):30.23 inches Hg (1023.8 mb)
Winds:variable direction winds at 3 MPH (3 knots; 1.5 m/s)
Visibility: 1.00 sm ( 1.61 km)
Ceiling:at least 12,000 feet AGL
Clouds: scattered clouds at 500 feet AGL
Weather:-SN (light snow)
QC Flag:automated observation with no human augmentation
Text:K6B9 181835Z AUTO 18003KT 1/2SM -SN VV005 00/M00 A3023 RMK AO2
Temperature: 0.0°C ( 32°F)
Dewpoint: 0.0°C ( 32°F) [RH = 100%]
Pressure (altimeter):30.23 inches Hg (1023.8 mb)
Winds:from the S (180 degrees) at 3 MPH (3 knots; 1.5 m/s)
Visibility: 0.50 sm ( 0.80 km)
Ceiling:indefinite ceiling with vertical visibility of 500 feet AGL
Clouds:obscured sky
Weather:-SN (light snow)
QC Flag:automated observation with no human augmentation
Text:K6B9 181815Z AUTO 00000KT 3/4SM -SN BKN006 00/M00 A3024 RMK AO2
Temperature: 0.0°C ( 32°F)
Dewpoint: 0.0°C ( 32°F) [RH = 100%]
Pressure (altimeter):30.24 inches Hg (1024.1 mb)
Winds:calm
Visibility: 0.75 sm ( 1.21 km)
Ceiling:600 feet AGL
Clouds: broken clouds at 600 feet AGL
Weather:-SN (light snow)
QC Flag:automated observation with no human augmentation
Text:K6B9 181755Z AUTO 12004KT 1 1/4SM -SN BKN006 00/M01 A3024 RMK AO2 P0002
Temperature: 0.0°C ( 32°F)
Dewpoint: -1.0°C ( 30°F) [RH = 93%]
Pressure (altimeter):30.24 inches Hg (1024.1 mb)
Winds:from the ESE (120 degrees) at 5 MPH (4 knots; 2.1 m/s)
Visibility: 1.25 sm ( 2.01 km)
Ceiling:600 feet AGL
Clouds: broken clouds at 600 feet AGL
Weather:-SN (light snow)
QC Flag:automated observation with no human augmentation
Text:K6B9 181735Z AUTO 13004KT 1 1/4SM -SN SCT006 M00/M01 A3025 RMK AO2
Temperature: 0.0°C ( 32°F)
Dewpoint: -1.0°C ( 30°F) [RH = 93%]
Pressure (altimeter):30.25 inches Hg (1024.5 mb)
Winds:from the SE (130 degrees) at 5 MPH (4 knots; 2.1 m/s)
Visibility: 1.25 sm ( 2.01 km)
Ceiling:at least 12,000 feet AGL
Clouds: scattered clouds at 600 feet AGL
Weather:-SN (light snow)
QC Flag:automated observation with no human augmentation
Text:K6B9 181715Z AUTO 00000KT 1SM -SN SCT007 M00/M01 A3025 RMK AO2
Temperature: 0.0°C ( 32°F)
Dewpoint: -1.0°C ( 30°F) [RH = 93%]
Pressure (altimeter):30.25 inches Hg (1024.5 mb)
Winds:calm
Visibility: 1.00 sm ( 1.61 km)
Ceiling:at least 12,000 feet AGL
Clouds: scattered clouds at 700 feet AGL
Weather:-SN (light snow)
QC Flag:automated observation with no human augmentation
Text:K6B9 181655Z AUTO 00000KT 3/4SM -SN VV005 M00/M01 A3026 RMK AO2
Temperature: 0.0°C ( 32°F)
Dewpoint: -1.0°C ( 30°F) [RH = 93%]
Pressure (altimeter):30.26 inches Hg (1024.8 mb)
Winds:calm
Visibility: 0.75 sm ( 1.21 km)
Ceiling:indefinite ceiling with vertical visibility of 500 feet AGL
Clouds:obscured sky
Weather:-SN (light snow)
QC Flag:automated observation with no human augmentation
Text:K6B9 181635Z AUTO VRB04KT 1 3/4SM -SN CLR M00/M02 A3028 RMK AO2
Temperature: 0.0°C ( 32°F)
Dewpoint: -2.0°C ( 28°F) [RH = 86%]
Pressure (altimeter):30.28 inches Hg (1025.5 mb)
Winds:variable direction winds at 5 MPH (4 knots; 2.1 m/s)
Visibility: 1.75 sm ( 2.82 km)
Ceiling:at least 12,000 feet AGL
Clouds:sky clear below 12,000 feet AGL
Weather:-SN (light snow)
QC Flag:automated observation with no human augmentation
Text:K6B9 181615Z AUTO VRB04KT 2SM -SN CLR M00/M03 A3029 RMK AO2
Temperature: 0.0°C ( 32°F)
Dewpoint: -3.0°C ( 27°F) [RH = 80%]
Pressure (altimeter):30.29 inches Hg (1025.8 mb)
Winds:variable direction winds at 5 MPH (4 knots; 2.1 m/s)
Visibility: 2.00 sm ( 3.22 km)
Ceiling:at least 12,000 feet AGL
Clouds:sky clear below 12,000 feet AGL
Weather:-SN (light snow)
QC Flag:automated observation with no human augmentation
Text:K6B9 181555Z AUTO VRB06KT 7SM -UP CLR 00/M04 A3029 RMK AO2
Temperature: 0.0°C ( 32°F)
Dewpoint: -4.0°C ( 25°F) [RH = 74%]
Pressure (altimeter):30.29 inches Hg (1025.8 mb)
Winds:variable direction winds at 7 MPH (6 knots; 3.1 m/s)
Visibility: 7 sm ( 11 km)
Ceiling:at least 12,000 feet AGL
Clouds:sky clear below 12,000 feet AGL
Weather:UP (unknown precipitation)
QC Flag:automated observation with no human augmentation
Text:K6B9 181535Z AUTO 20004KT 10SM FEW022 FEW031 00/M04 A3030 RMK AO2
Temperature: 0.0°C ( 32°F)
Dewpoint: -4.0°C ( 25°F) [RH = 74%]
Pressure (altimeter):30.30 inches Hg (1026.2 mb)
Winds:from the SSW (200 degrees) at 5 MPH (4 knots; 2.1 m/s)
Visibility:10 or more sm (16+ km)
Ceiling:at least 12,000 feet AGL
Clouds: few clouds at 2200 feet AGL, few clouds at 3100 feet AGL
QC Flag:automated observation with no human augmentation
Text:K6B9 181515Z AUTO 19005KT 10SM SCT027 SCT032 00/M04 A3030 RMK AO2
Temperature: 0.0°C ( 32°F)
Dewpoint: -4.0°C ( 25°F) [RH = 74%]
Pressure (altimeter):30.30 inches Hg (1026.2 mb)
Winds:from the S (190 degrees) at 6 MPH (5 knots; 2.6 m/s)
Visibility:10 or more sm (16+ km)
Ceiling:at least 12,000 feet AGL
Clouds: scattered clouds at 2700 feet AGL, scattered clouds at 3200 feet AGL
QC Flag:automated observation with no human augmentation
Text:K6B9 181455Z AUTO VRB05KT 10SM BKN027 OVC070 00/M05 A3031 RMK AO2
Temperature: 0.0°C ( 32°F)
Dewpoint: -5.0°C ( 23°F) [RH = 69%]
Pressure (altimeter):30.31 inches Hg (1026.5 mb)
Winds:variable direction winds at 6 MPH (5 knots; 2.6 m/s)
Visibility:10 or more sm (16+ km)
Ceiling:2700 feet AGL
Clouds: broken clouds at 2700 feet AGL, overcast cloud deck at 7000 feet AGL
QC Flag:automated observation with no human augmentation
Text:K6B9 181435Z AUTO VRB04KT 10SM SCT028 BKN070 BKN080 M00/M05 A3031 RMK AO2
Temperature: 0.0°C ( 32°F)
Dewpoint: -5.0°C ( 23°F) [RH = 69%]
Pressure (altimeter):30.31 inches Hg (1026.5 mb)
Winds:variable direction winds at 5 MPH (4 knots; 2.1 m/s)
Visibility:10 or more sm (16+ km)
Ceiling:7000 feet AGL
Clouds: scattered clouds at 2800 feet AGL, broken clouds at 7000 feet AGL, broken clouds at 8000 feet AGL
QC Flag:automated observation with no human augmentation
Text:K6B9 181415Z AUTO 00000KT 10SM BKN040 M00/M05 A3031 RMK AO2
Temperature: 0.0°C ( 32°F)
Dewpoint: -5.0°C ( 23°F) [RH = 69%]
Pressure (altimeter):30.31 inches Hg (1026.5 mb)
Winds:calm
Visibility:10 or more sm (16+ km)
Ceiling:4000 feet AGL
Clouds: broken clouds at 4000 feet AGL
QC Flag:automated observation with no human augmentation
Text:K6B9 181355Z AUTO 19004KT 10SM OVC040 M01/M05 A3031 RMK AO2
Temperature: -1.0°C ( 30°F)
Dewpoint: -5.0°C ( 23°F) [RH = 74%]
Pressure (altimeter):30.31 inches Hg (1026.5 mb)
Winds:from the S (190 degrees) at 5 MPH (4 knots; 2.1 m/s)
Visibility:10 or more sm (16+ km)
Ceiling:4000 feet AGL
Clouds: overcast cloud deck at 4000 feet AGL
QC Flag:automated observation with no human augmentation
Text:K6B9 181335Z AUTO VRB03KT 10SM OVC041 M01/M05 A3031 RMK AO2
Temperature: -1.0°C ( 30°F)
Dewpoint: -5.0°C ( 23°F) [RH = 74%]
Pressure (altimeter):30.31 inches Hg (1026.5 mb)
Winds:variable direction winds at 3 MPH (3 knots; 1.5 m/s)
Visibility:10 or more sm (16+ km)
Ceiling:4100 feet AGL
Clouds: overcast cloud deck at 4100 feet AGL
QC Flag:automated observation with no human augmentation